createdAt,value
2019-05-06T00:00:51.358Z,0
2019-05-06T00:02:06.775Z,0
2019-05-06T00:03:19.757Z,0
2019-05-06T00:04:34.217Z,0
2019-05-06T00:05:48.216Z,0
2019-05-06T00:08:16.955Z,0
2019-05-06T00:09:31.052Z,0
2019-05-06T00:10:45.345Z,0
2019-05-06T00:11:59.491Z,0
2019-05-06T00:13:14.535Z,0
2019-05-06T00:14:27.998Z,0
2019-05-06T00:15:42.179Z,0
2019-05-06T00:16:56.433Z,0
2019-05-06T00:18:10.667Z,0
2019-05-06T00:19:24.880Z,0
2019-05-06T00:20:39.197Z,0
2019-05-06T00:21:53.469Z,0
2019-05-06T00:23:07.658Z,0
2019-05-06T00:24:21.988Z,0
2019-05-06T00:25:36.110Z,0
2019-05-06T00:26:50.379Z,0
2019-05-06T00:28:04.655Z,0
2019-05-06T00:29:18.813Z,0
2019-05-06T00:30:33.119Z,0
2019-05-06T00:31:47.284Z,0
2019-05-06T00:33:01.497Z,0
2019-05-06T00:34:21.377Z,0
2019-05-06T00:35:29.968Z,0
2019-05-06T00:36:44.325Z,0
2019-05-06T00:38:01.630Z,0
2019-05-06T00:39:12.648Z,0
2019-05-06T00:40:26.873Z,0
2019-05-06T00:41:41.163Z,0
2019-05-06T00:42:55.376Z,0
2019-05-06T00:44:09.637Z,0
2019-05-06T00:46:38.173Z,0
2019-05-06T00:47:52.430Z,0
2019-05-06T00:50:20.898Z,0
2019-05-06T00:51:35.194Z,0
2019-05-06T00:52:49.309Z,0
2019-05-06T00:54:03.617Z,0
2019-05-06T00:55:20.975Z,0
2019-05-06T00:56:33.840Z,0
2019-05-06T00:57:46.275Z,0
2019-05-06T00:59:00.531Z,0
2019-05-06T01:00:14.993Z,0
2019-05-06T01:01:29.030Z,0
2019-05-06T01:02:43.333Z,0
2019-05-06T01:03:57.812Z,0
2019-05-06T01:05:11.826Z,0
2019-05-06T01:06:25.974Z,0
2019-05-06T01:07:40.246Z,0
2019-05-06T01:08:54.491Z,0
2019-05-06T01:10:08.855Z,0
2019-05-06T01:11:23.088Z,0
2019-05-06T01:12:37.209Z,0
2019-05-06T01:13:51.924Z,0
2019-05-06T01:15:05.701Z,0
2019-05-06T01:16:19.949Z,0
2019-05-06T01:17:34.188Z,0
2019-05-06T01:18:48.660Z,0
2019-05-06T01:20:02.881Z,0
2019-05-06T01:21:16.976Z,0
2019-05-06T01:22:31.267Z,0
2019-05-06T01:23:45.386Z,0
2019-05-06T01:24:59.703Z,0
2019-05-06T01:26:15.538Z,0
2019-05-06T01:27:28.097Z,0
2019-05-06T01:28:42.356Z,0
2019-05-06T01:30:00.854Z,0
2019-05-06T01:31:10.869Z,0
2019-05-06T01:32:25.260Z,0
2019-05-06T01:33:39.400Z,0
2019-05-06T01:34:53.709Z,0
2019-05-06T01:36:07.850Z,0
2019-05-06T01:37:22.068Z,0
2019-05-06T01:38:36.298Z,0
2019-05-06T01:39:50.730Z,0
2019-05-06T01:41:04.774Z,0
2019-05-06T01:42:19.024Z,0
2019-05-06T01:43:33.372Z,0
2019-05-06T01:44:47.605Z,0
2019-05-06T01:46:01.748Z,0
2019-05-06T01:47:16.004Z,0
2019-05-06T01:48:30.277Z,0
2019-05-06T01:49:44.563Z,0
2019-05-06T01:50:58.798Z,0
2019-05-06T01:52:12.990Z,0
2019-05-06T01:53:27.260Z,0
2019-05-06T01:54:41.560Z,0
2019-05-06T01:55:56.266Z,0
2019-05-06T01:57:09.988Z,0
2019-05-06T01:58:24.221Z,0
2019-05-06T01:59:38.463Z,0
2019-05-06T02:00:52.757Z,0
2019-05-06T02:02:07.041Z,0
2019-05-06T02:03:21.260Z,0
2019-05-06T02:04:35.424Z,0
2019-05-06T02:05:49.687Z,0
2019-05-06T02:07:04.064Z,0
2019-05-06T02:08:21.074Z,0
2019-05-06T02:09:32.590Z,0
2019-05-06T02:10:46.865Z,0
2019-05-06T02:12:00.861Z,0
2019-05-06T02:13:15.219Z,0
2019-05-06T02:14:29.335Z,0
2019-05-06T02:15:43.640Z,0
2019-05-06T02:16:57.835Z,0
2019-05-06T02:18:12.173Z,0
2019-05-06T02:19:26.351Z,0
2019-05-06T02:20:40.661Z,0
2019-05-06T02:21:54.825Z,0
2019-05-06T02:23:09.070Z,0
2019-05-06T02:24:23.326Z,0
2019-05-06T02:26:52.039Z,0
2019-05-06T02:28:06.064Z,0
2019-05-06T02:29:21.347Z,0
2019-05-06T02:30:34.543Z,0
2019-05-06T02:31:48.800Z,0
2019-05-06T02:33:05.775Z,0
2019-05-06T02:34:17.284Z,0
2019-05-06T02:35:31.524Z,0
2019-05-06T02:36:45.765Z,0
2019-05-06T02:38:00.053Z,0
2019-05-06T02:39:14.393Z,0
2019-05-06T02:41:42.865Z,0
2019-05-06T02:42:56.958Z,0
2019-05-06T02:44:11.205Z,0
2019-05-06T02:45:25.514Z,0
2019-05-06T02:46:39.806Z,0
2019-05-06T02:49:08.310Z,0
2019-05-06T02:50:22.468Z,0
2019-05-06T02:51:36.806Z,0
2019-05-06T02:52:50.889Z,0
2019-05-06T02:54:06.027Z,0
2019-05-06T02:55:19.461Z,0
2019-05-06T02:56:33.690Z,0
2019-05-06T02:57:47.968Z,0
2019-05-06T02:59:02.185Z,0
2019-05-06T03:00:16.470Z,0
2019-05-06T03:01:30.586Z,0
2019-05-06T03:02:44.826Z,0
2019-05-06T03:03:59.156Z,0
2019-05-06T03:05:13.326Z,0
2019-05-06T03:06:27.593Z,0
2019-05-06T03:07:41.871Z,0
2019-05-06T03:08:56.103Z,0
2019-05-06T03:10:10.404Z,0
2019-05-06T03:11:24.542Z,0
2019-05-06T03:12:38.815Z,0
2019-05-06T03:13:53.091Z,4
2019-05-06T03:15:07.297Z,4
2019-05-06T03:16:21.721Z,0
2019-05-06T03:17:35.791Z,4
2019-05-06T03:18:50.015Z,4
2019-05-06T03:20:04.273Z,4
2019-05-06T03:21:18.501Z,4
2019-05-06T03:22:32.759Z,4
2019-05-06T03:23:46.996Z,8
2019-05-06T03:25:01.356Z,12
2019-05-06T03:26:17.725Z,12
2019-05-06T03:27:29.778Z,16
2019-05-06T03:28:44.008Z,16
2019-05-06T03:29:58.255Z,20
2019-05-06T03:31:12.522Z,24
2019-05-06T03:32:26.728Z,28
2019-05-06T03:33:40.975Z,36
2019-05-06T03:34:55.323Z,40
2019-05-06T03:36:09.452Z,48
2019-05-06T03:38:38.147Z,64
2019-05-06T03:39:52.181Z,80
2019-05-06T03:41:06.459Z,92
2019-05-06T03:42:20.654Z,104
2019-05-06T03:43:34.889Z,116
2019-05-06T03:44:49.154Z,140
2019-05-06T03:46:03.395Z,156
2019-05-06T03:47:17.801Z,180
2019-05-06T03:48:31.881Z,200
2019-05-06T03:49:46.114Z,232
2019-05-06T03:51:00.374Z,260
2019-05-06T03:52:14.785Z,292
2019-05-06T03:53:28.936Z,332
2019-05-06T03:54:43.130Z,368
2019-05-06T03:55:57.764Z,408
2019-05-06T03:57:11.597Z,452
2019-05-06T03:58:25.844Z,500
2019-05-06T03:59:40.171Z,548
2019-05-06T04:00:54.417Z,600
2019-05-06T04:02:08.569Z,648
2019-05-06T04:03:23.031Z,704
2019-05-06T04:04:37.171Z,756
2019-05-06T04:05:51.313Z,808
2019-05-06T04:08:19.804Z,916
2019-05-06T04:09:34.043Z,976
2019-05-06T04:10:48.359Z,1028
2019-05-06T04:12:02.560Z,1084
2019-05-06T04:13:16.790Z,1140
2019-05-06T04:14:31.052Z,1196
2019-05-06T04:15:45.302Z,1256
2019-05-06T04:16:59.542Z,1312
2019-05-06T04:18:13.815Z,1364
2019-05-06T04:19:28.138Z,1420
2019-05-06T04:20:43.186Z,1476
2019-05-06T04:21:56.611Z,1532
2019-05-06T04:23:10.761Z,1592
2019-05-06T04:24:25.168Z,1656
2019-05-06T04:26:53.529Z,1816
2019-05-06T04:28:07.811Z,1924
2019-05-06T04:29:22.029Z,2056
2019-05-06T04:30:36.301Z,2180
2019-05-06T04:31:50.577Z,2316
2019-05-06T04:33:04.772Z,2460
2019-05-06T04:34:19.011Z,2652
2019-05-06T04:35:33.442Z,2720
2019-05-06T04:36:47.512Z,2880
2019-05-06T04:38:01.884Z,2960
2019-05-06T04:39:16.040Z,3044
2019-05-06T04:40:30.349Z,3220
2019-05-06T04:41:45.117Z,3352
2019-05-06T04:42:58.825Z,3548
2019-05-06T04:44:12.992Z,3684
2019-05-06T04:45:27.247Z,3636
2019-05-06T04:46:41.526Z,3480
2019-05-06T04:47:55.758Z,3288
2019-05-06T04:49:10.008Z,2952
2019-05-06T04:50:24.425Z,2576
2019-05-06T04:52:52.729Z,2300
2019-05-06T04:54:07.078Z,2468
2019-05-06T04:55:22.184Z,2728
2019-05-06T04:57:49.808Z,3100
2019-05-06T04:59:03.853Z,3236
2019-05-06T05:00:18.101Z,3304
2019-05-06T05:01:32.382Z,3324
2019-05-06T05:02:47.064Z,3348
2019-05-06T05:04:00.785Z,3392
2019-05-06T05:05:14.977Z,3432
2019-05-06T05:06:29.227Z,3496
2019-05-06T05:07:44.290Z,3564
2019-05-06T05:08:57.842Z,3612
2019-05-06T05:10:11.999Z,3636
2019-05-06T05:11:26.276Z,3688
2019-05-06T05:12:40.473Z,3764
2019-05-06T05:13:54.588Z,3828
2019-05-06T05:15:08.875Z,3900
2019-05-06T05:16:23.247Z,4012
2019-05-06T05:17:37.387Z,4140
2019-05-06T05:18:51.695Z,4244
2019-05-06T05:20:05.780Z,4320
2019-05-06T05:22:34.339Z,4524
2019-05-06T05:23:48.362Z,4648
2019-05-06T05:25:02.613Z,4748
2019-05-06T05:26:27.819Z,4844
2019-05-06T05:27:31.137Z,4928
2019-05-06T05:28:45.441Z,5000
2019-05-06T05:29:59.517Z,5116
2019-05-06T05:31:13.777Z,5260
2019-05-06T05:32:27.990Z,5404
2019-05-06T05:33:42.518Z,5540
2019-05-06T05:34:56.410Z,5644
2019-05-06T05:36:10.572Z,5728
2019-05-06T05:37:24.965Z,5772
2019-05-06T05:38:39.694Z,5836
2019-05-06T05:39:53.221Z,5860
2019-05-06T05:41:07.654Z,5928
2019-05-06T05:42:21.842Z,5980
2019-05-06T05:43:36.124Z,5980
2019-05-06T05:44:50.186Z,5988
2019-05-06T05:46:04.387Z,6028
2019-05-06T05:47:18.604Z,6088
2019-05-06T05:48:32.809Z,6112
2019-05-06T05:49:46.992Z,6176
2019-05-06T05:51:01.283Z,6288
2019-05-06T05:52:20.640Z,6448
2019-05-06T05:53:29.613Z,6544
2019-05-06T05:54:43.938Z,6688
2019-05-06T05:55:59.008Z,6860
2019-05-06T05:57:12.240Z,7080
2019-05-06T05:59:40.664Z,7616
2019-05-06T06:00:54.851Z,7848
2019-05-06T06:02:09.093Z,8096
2019-05-06T06:03:23.247Z,8248
2019-05-06T06:04:37.562Z,8328
2019-05-06T06:05:51.704Z,8440
2019-05-06T06:07:05.892Z,8520
2019-05-06T06:08:20.132Z,8604
2019-05-06T06:09:34.273Z,8692
2019-05-06T06:10:48.497Z,8868
2019-05-06T06:12:02.838Z,9052
2019-05-06T06:13:17.114Z,9132
2019-05-06T06:14:31.119Z,9104
2019-05-06T06:15:45.277Z,9148
2019-05-06T06:16:59.612Z,9260
2019-05-06T06:18:13.674Z,9400
2019-05-06T06:19:28.003Z,9536
2019-05-06T06:20:42.111Z,9720
2019-05-06T06:21:56.283Z,9980
2019-05-06T06:23:10.478Z,10392
2019-05-06T06:24:24.744Z,10868
2019-05-06T06:25:38.891Z,11248
2019-05-06T06:26:53.101Z,11640
2019-05-06T06:28:07.297Z,12008
2019-05-06T06:29:21.629Z,12424
2019-05-06T06:30:35.820Z,12828
2019-05-06T06:31:49.891Z,13072
2019-05-06T06:33:04.142Z,13268
2019-05-06T06:34:18.264Z,13512
2019-05-06T06:35:32.485Z,13780
2019-05-06T06:36:46.643Z,14060
2019-05-06T06:38:00.839Z,14188
2019-05-06T06:39:15.059Z,14148
2019-05-06T06:40:29.349Z,14160
2019-05-06T06:41:43.564Z,13960
2019-05-06T06:42:57.559Z,13720
2019-05-06T06:44:11.871Z,14288
2019-05-06T06:45:25.951Z,15688
2019-05-06T06:46:40.153Z,18016
2019-05-06T06:49:08.561Z,20704
2019-05-06T06:50:22.780Z,20160
2019-05-06T06:51:36.834Z,19552
2019-05-06T06:52:50.996Z,19296
2019-05-06T06:54:05.196Z,20064
2019-05-06T06:55:19.444Z,20576
2019-05-06T06:56:33.646Z,20672
2019-05-06T06:57:47.680Z,20224
2019-05-06T06:59:01.857Z,20128
2019-05-06T07:01:30.175Z,19424
2019-05-06T07:02:44.331Z,19872
2019-05-06T07:03:58.547Z,20832
2019-05-06T07:05:12.736Z,22880
2019-05-06T07:06:26.885Z,24320
2019-05-06T07:07:41.005Z,26816
2019-05-06T07:08:55.202Z,32352
2019-05-06T07:10:10.325Z,32064
2019-05-06T07:11:23.466Z,28384
2019-05-06T07:12:37.654Z,28352
2019-05-06T07:13:51.998Z,27200
2019-05-06T07:15:05.907Z,29440
2019-05-06T07:16:20.073Z,29344
2019-05-06T07:17:34.193Z,28768
2019-05-06T07:18:48.400Z,30976
2019-05-06T07:20:02.517Z,29792
2019-05-06T07:21:16.649Z,29984
2019-05-06T07:22:30.898Z,31264
2019-05-06T07:23:44.988Z,30784
2019-05-06T07:24:59.100Z,32128
2019-05-06T07:27:27.376Z,30976
2019-05-06T07:28:41.831Z,29120
2019-05-06T07:29:55.720Z,31072
2019-05-06T07:31:09.825Z,28384
2019-05-06T07:32:24.005Z,28320
2019-05-06T07:33:38.081Z,28512
2019-05-06T07:34:52.217Z,29312
2019-05-06T07:36:06.428Z,29952
2019-05-06T07:37:20.571Z,34016
2019-05-06T07:38:34.634Z,30496
2019-05-06T07:39:48.775Z,29088
2019-05-06T07:42:21.227Z,28512
2019-05-06T07:43:31.221Z,28352
2019-05-06T07:44:45.510Z,27872
2019-05-06T07:45:59.470Z,27168
2019-05-06T07:47:13.636Z,26528
2019-05-06T07:48:27.729Z,26528
2019-05-06T07:49:41.987Z,27552
2019-05-06T07:50:55.991Z,29408
2019-05-06T07:52:10.151Z,35360
2019-05-06T07:53:24.264Z,36064
2019-05-06T07:54:38.467Z,35168
2019-05-06T07:57:06.740Z,35584
2019-05-06T07:58:20.793Z,35904
2019-05-06T07:59:34.896Z,35744
2019-05-06T08:00:49.038Z,34880
2019-05-06T08:02:03.201Z,36032
2019-05-06T08:03:17.290Z,34592
2019-05-06T08:04:31.453Z,34272
2019-05-06T08:05:45.978Z,35072
2019-05-06T08:06:59.861Z,35776
2019-05-06T08:08:13.848Z,35200
2019-05-06T08:09:28.034Z,34752
2019-05-06T08:10:42.197Z,41184
2019-05-06T08:11:56.300Z,34848
2019-05-06T08:13:10.510Z,35840
2019-05-06T08:15:38.784Z,42240
2019-05-06T08:16:52.875Z,42592
2019-05-06T08:18:07.355Z,59360
2019-05-06T08:19:21.032Z,48224
2019-05-06T08:20:35.142Z,42432
2019-05-06T08:21:50.352Z,42816
2019-05-06T08:23:03.500Z,44992
2019-05-06T08:24:17.562Z,51424
2019-05-06T08:26:48.271Z,42752
2019-05-06T08:27:59.905Z,42976
2019-05-06T08:29:14.012Z,43072
2019-05-06T08:30:28.181Z,41056
2019-05-06T08:31:42.254Z,38816
2019-05-06T08:32:56.414Z,35968
2019-05-06T08:34:10.488Z,33920
2019-05-06T08:35:24.595Z,32960
2019-05-06T08:36:38.723Z,32480
2019-05-06T08:37:52.902Z,27424
2019-05-06T08:39:07.059Z,24160
2019-05-06T08:40:21.125Z,21536
2019-05-06T08:41:35.247Z,47808
2019-05-06T08:42:49.342Z,21792
2019-05-06T08:44:03.499Z,76032
2019-05-06T08:45:17.627Z,15508
2019-05-06T08:46:31.786Z,69184
2019-05-06T08:47:45.929Z,69440
2019-05-06T08:48:59.991Z,70944
2019-05-06T08:50:14.103Z,71456
2019-05-06T08:51:28.235Z,70752
2019-05-06T08:52:42.348Z,70592
2019-05-06T08:53:56.513Z,69984
2019-05-06T08:55:10.505Z,70432
2019-05-06T08:56:28.748Z,69536
2019-05-06T08:57:38.891Z,71200
2019-05-06T08:58:53.641Z,70272
2019-05-06T09:00:06.856Z,72768
2019-05-06T09:01:21.007Z,72864
2019-05-06T09:02:35.045Z,71872
2019-05-06T09:03:49.131Z,75264
2019-05-06T09:05:03.216Z,76224
2019-05-06T09:06:17.143Z,76672
2019-05-06T09:07:31.216Z,75648
2019-05-06T09:08:45.258Z,74432
2019-05-06T09:09:59.417Z,76288
2019-05-06T09:12:27.769Z,81312
2019-05-06T09:13:41.572Z,84672
2019-05-06T09:14:55.787Z,86688
2019-05-06T09:16:09.660Z,86304
2019-05-06T09:17:23.721Z,87264
2019-05-06T09:18:37.798Z,31840
2019-05-06T09:19:52.120Z,42560
2019-05-06T09:21:05.873Z,81120
2019-05-06T09:22:23.784Z,56416
2019-05-06T09:23:34.096Z,85120
2019-05-06T09:24:48.052Z,84544
2019-05-06T09:26:05.779Z,82240
2019-05-06T09:27:16.285Z,81888
2019-05-06T09:28:30.269Z,72960
2019-05-06T09:29:44.274Z,72224
2019-05-06T09:30:58.457Z,71552
2019-05-06T09:32:13.226Z,71296
2019-05-06T09:33:26.563Z,71488
2019-05-06T09:34:40.617Z,73056
2019-05-06T09:35:54.524Z,78400
2019-05-06T09:37:08.627Z,75488
2019-05-06T09:38:22.690Z,77632
2019-05-06T09:39:36.854Z,79520
2019-05-06T09:40:50.773Z,79200
2019-05-06T09:42:05.112Z,84928
2019-05-06T09:43:18.860Z,84800
2019-05-06T09:44:32.909Z,85504
2019-05-06T09:45:47.180Z,82560
2019-05-06T09:47:01.009Z,83360
2019-05-06T09:48:15.288Z,80288
2019-05-06T09:49:29.119Z,80640
2019-05-06T09:50:43.235Z,78496
2019-05-06T09:51:57.369Z,83200
2019-05-06T09:53:11.485Z,82656
2019-05-06T09:54:25.390Z,95008
2019-05-06T09:56:57.745Z,97920
2019-05-06T09:58:07.793Z,99936
2019-05-06T10:00:36.256Z,98976
2019-05-06T10:01:49.802Z,99424
2019-05-06T10:03:03.876Z,96800
2019-05-06T10:04:17.871Z,97632
2019-05-06T10:05:31.980Z,101056
2019-05-06T10:06:46.192Z,103232
2019-05-06T10:08:00.013Z,103456
2019-05-06T10:09:14.068Z,34880
2019-05-06T10:10:28.124Z,28416
2019-05-06T10:11:42.204Z,34272
2019-05-06T10:12:56.340Z,71648
2019-05-06T10:14:10.326Z,110880
2019-05-06T10:15:24.402Z,77312
2019-05-06T10:16:38.434Z,73280
2019-05-06T10:17:52.778Z,60896
2019-05-06T10:19:06.801Z,71360
2019-05-06T10:20:20.733Z,61696
2019-05-06T10:21:34.753Z,56832
2019-05-06T10:22:49.273Z,55360
2019-05-06T10:24:02.937Z,59328
2019-05-06T10:25:17.218Z,60320
2019-05-06T10:27:45.165Z,59744
2019-05-06T10:28:59.284Z,56864
2019-05-06T10:30:13.488Z,63808
2019-05-06T10:31:27.539Z,53088
2019-05-06T10:32:41.537Z,51424
2019-05-06T10:33:55.663Z,59680
2019-05-06T10:35:09.705Z,65632
2019-05-06T10:36:23.797Z,60832
2019-05-06T10:37:37.953Z,53536
2019-05-06T10:38:53.203Z,49216
2019-05-06T10:40:06.137Z,47136
2019-05-06T10:41:20.367Z,50560
2019-05-06T10:42:34.317Z,86912
2019-05-06T10:43:48.397Z,58208
2019-05-06T10:45:02.508Z,75808
2019-05-06T10:46:16.667Z,61696
2019-05-06T10:47:30.674Z,35808
2019-05-06T10:48:44.761Z,31232
2019-05-06T10:49:59.016Z,37472
2019-05-06T10:51:13.020Z,103840
2019-05-06T10:52:27.074Z,83072
2019-05-06T10:53:41.162Z,53632
2019-05-06T10:54:58.016Z,101536
2019-05-06T10:57:23.546Z,39168
2019-05-06T10:58:37.625Z,41312
2019-05-06T10:59:51.824Z,110016
2019-05-06T11:01:05.815Z,112096
2019-05-06T11:02:19.831Z,138144
2019-05-06T11:03:34.447Z,53568
2019-05-06T11:04:48.124Z,48448
2019-05-06T11:06:02.083Z,54720
2019-05-06T11:07:16.189Z,65856
2019-05-06T11:08:30.275Z,54848
2019-05-06T11:09:44.372Z,121696
2019-05-06T11:10:58.459Z,46208
2019-05-06T11:12:12.632Z,40736
2019-05-06T11:13:26.625Z,39520
2019-05-06T11:14:40.728Z,38208
2019-05-06T11:15:54.856Z,37184
2019-05-06T11:17:08.939Z,35104
2019-05-06T11:18:23.670Z,34720
2019-05-06T11:19:37.192Z,35968
2019-05-06T11:20:51.389Z,39424
2019-05-06T11:22:06.768Z,41856
2019-05-06T11:23:19.693Z,42400
2019-05-06T11:24:34.660Z,41952
2019-05-06T11:25:47.955Z,41216
2019-05-06T11:27:01.914Z,72704
2019-05-06T11:28:16.017Z,53184
2019-05-06T11:29:30.191Z,79072
2019-05-06T11:30:44.260Z,56448
2019-05-06T11:33:12.459Z,49248
2019-05-06T11:34:26.558Z,49760
2019-05-06T11:35:40.738Z,40512
2019-05-06T11:36:54.848Z,38112
2019-05-06T11:38:09.001Z,38144
2019-05-06T11:39:23.067Z,40416
2019-05-06T11:40:37.126Z,45184
2019-05-06T11:41:51.289Z,47904
2019-05-06T11:43:05.383Z,52832
2019-05-06T11:44:19.511Z,59232
2019-05-06T11:45:33.589Z,54272
2019-05-06T11:46:47.711Z,70688
2019-05-06T11:48:01.986Z,128192
2019-05-06T11:49:15.948Z,36512
2019-05-06T11:50:30.099Z,30464
2019-05-06T11:51:44.184Z,28576
2019-05-06T11:52:58.247Z,28096
2019-05-06T11:54:12.454Z,29056
2019-05-06T11:55:26.801Z,30656
2019-05-06T11:56:40.702Z,32992
2019-05-06T11:57:54.784Z,36672
2019-05-06T11:59:08.921Z,114912
2019-05-06T12:00:23.087Z,125248
2019-05-06T12:01:37.247Z,37408
2019-05-06T12:02:51.314Z,33888
2019-05-06T12:04:05.391Z,32832
2019-05-06T12:05:19.589Z,31296
2019-05-06T12:06:33.643Z,31104
2019-05-06T12:07:47.909Z,32992
2019-05-06T12:09:01.982Z,36160
2019-05-06T12:10:16.151Z,41248
2019-05-06T12:12:44.376Z,84928
2019-05-06T12:13:58.474Z,91840
2019-05-06T12:15:12.595Z,54592
2019-05-06T12:16:26.809Z,51648
2019-05-06T12:17:41.247Z,74240
2019-05-06T12:18:54.952Z,56224
2019-05-06T12:20:09.092Z,56576
2019-05-06T12:21:23.151Z,55040
2019-05-06T12:22:37.255Z,51808
2019-05-06T12:23:51.498Z,120352
2019-05-06T12:25:05.494Z,46592
2019-05-06T12:26:20.728Z,42464
2019-05-06T12:27:33.733Z,42560
2019-05-06T12:28:47.885Z,52832
2019-05-06T12:30:02.248Z,50240
2019-05-06T12:31:16.107Z,45472
2019-05-06T12:32:30.236Z,44480
2019-05-06T12:33:44.365Z,47360
2019-05-06T12:34:58.499Z,42944
2019-05-06T12:36:12.610Z,42720
2019-05-06T12:37:26.723Z,94240
2019-05-06T12:38:41.324Z,58240
2019-05-06T12:39:55.006Z,133184
2019-05-06T12:41:09.066Z,59680
2019-05-06T12:42:23.213Z,65632
2019-05-06T12:43:38.220Z,80160
2019-05-06T12:44:51.576Z,130176
2019-05-06T12:46:05.496Z,135840
2019-05-06T12:47:19.608Z,123776
2019-05-06T12:48:33.668Z,65984
2019-05-06T12:49:50.550Z,128320
2019-05-06T12:51:04.481Z,129184
2019-05-06T12:52:15.918Z,137888
2019-05-06T12:53:30.063Z,134240
2019-05-06T12:54:44.183Z,105824
2019-05-06T12:56:01.526Z,55648
2019-05-06T12:57:12.306Z,52224
2019-05-06T12:58:26.331Z,39872
2019-05-06T13:00:54.534Z,66112
2019-05-06T13:02:08.639Z,43712
2019-05-06T13:03:22.916Z,40832
2019-05-06T13:04:36.934Z,41344
2019-05-06T13:05:50.981Z,78272
2019-05-06T13:07:05.181Z,83040
2019-05-06T13:08:19.273Z,44032
2019-05-06T13:09:33.456Z,46720
2019-05-06T13:12:01.642Z,38240
2019-05-06T13:13:15.962Z,35488
2019-05-06T13:14:29.928Z,34304
2019-05-06T13:15:43.929Z,35744
2019-05-06T13:16:58.094Z,50624
2019-05-06T13:18:12.233Z,38144
2019-05-06T13:19:26.444Z,44480
2019-05-06T13:21:54.710Z,135616
2019-05-06T13:23:08.760Z,94240
2019-05-06T13:24:22.904Z,60160
2019-05-06T13:25:37.578Z,66592
2019-05-06T13:26:51.103Z,76576
2019-05-06T13:28:05.161Z,53600
2019-05-06T13:30:33.363Z,32480
2019-05-06T13:31:47.564Z,26624
2019-05-06T13:33:01.616Z,22368
2019-05-06T13:34:15.737Z,21344
2019-05-06T13:35:29.854Z,21696
2019-05-06T13:36:44.255Z,22848
2019-05-06T13:37:58.368Z,24160
2019-05-06T13:39:12.288Z,25120
2019-05-06T13:40:26.441Z,26048
2019-05-06T13:41:40.531Z,27616
2019-05-06T13:42:54.667Z,28160
2019-05-06T13:44:08.844Z,26112
2019-05-06T13:45:23.123Z,23264
2019-05-06T13:46:37.108Z,22176
2019-05-06T13:47:51.408Z,26464
2019-05-06T13:49:05.457Z,110912
2019-05-06T13:50:19.559Z,43040
2019-05-06T13:51:33.683Z,35424
2019-05-06T13:52:47.988Z,27840
2019-05-06T13:54:01.995Z,26464
2019-05-06T13:55:16.109Z,24800
2019-05-06T13:56:30.269Z,21888
2019-05-06T13:57:44.476Z,20480
2019-05-06T13:58:58.532Z,20672
2019-05-06T14:00:12.685Z,21792
2019-05-06T14:01:26.995Z,24256
2019-05-06T14:02:41.389Z,28160
2019-05-06T14:03:55.153Z,31744
2019-05-06T14:05:09.366Z,35904
2019-05-06T14:06:23.444Z,53696
2019-05-06T14:07:37.579Z,87424
2019-05-06T14:08:51.893Z,50016
2019-05-06T14:11:22.756Z,38304
2019-05-06T14:12:37.145Z,32416
2019-05-06T14:13:48.415Z,28032
2019-05-06T14:15:02.503Z,24224
2019-05-06T14:16:16.596Z,22016
2019-05-06T14:17:30.656Z,21280
2019-05-06T14:18:44.879Z,21728
2019-05-06T14:21:13.079Z,32448
2019-05-06T14:22:27.228Z,35680
2019-05-06T14:23:41.393Z,34560
2019-05-06T14:24:55.533Z,33056
2019-05-06T14:26:10.383Z,31776
2019-05-06T14:27:23.894Z,31648
2019-05-06T14:29:52.215Z,40032
2019-05-06T14:31:06.272Z,40928
2019-05-06T14:32:20.408Z,40128
2019-05-06T14:33:34.627Z,45568
2019-05-06T14:34:48.726Z,48032
2019-05-06T14:36:02.851Z,45184
2019-05-06T14:37:17.006Z,45888
2019-05-06T14:38:31.099Z,55168
2019-05-06T14:39:45.301Z,49216
2019-05-06T14:40:59.793Z,44672
2019-05-06T14:42:13.551Z,39328
2019-05-06T14:43:27.596Z,34176
2019-05-06T14:44:41.777Z,27904
2019-05-06T14:45:55.866Z,21888
2019-05-06T14:47:10.000Z,18080
2019-05-06T14:48:24.104Z,15804
2019-05-06T14:49:38.271Z,15056
2019-05-06T14:50:52.394Z,15208
2019-05-06T14:52:06.756Z,15716
2019-05-06T14:53:20.721Z,16556
2019-05-06T14:54:34.860Z,18144
2019-05-06T14:55:49.462Z,20128
2019-05-06T14:57:03.133Z,21952
2019-05-06T14:58:17.344Z,23392
2019-05-06T14:59:31.440Z,24032
2019-05-06T15:00:45.575Z,24448
2019-05-06T15:03:13.977Z,26464
2019-05-06T15:04:28.043Z,33088
2019-05-06T15:05:42.289Z,64032
2019-05-06T15:06:56.383Z,37664
2019-05-06T15:08:10.549Z,34304
2019-05-06T15:09:24.643Z,31072
2019-05-06T15:10:38.799Z,28032
2019-05-06T15:11:53.128Z,25664
2019-05-06T15:13:07.086Z,24320
2019-05-06T15:14:21.247Z,23488
2019-05-06T15:15:35.437Z,22528
2019-05-06T15:16:49.540Z,21504
2019-05-06T15:18:03.795Z,20128
2019-05-06T15:19:17.888Z,18656
2019-05-06T15:20:32.085Z,17376
2019-05-06T15:21:46.158Z,15968
2019-05-06T15:23:00.335Z,15144
2019-05-06T15:24:14.499Z,14848
2019-05-06T15:25:36.308Z,14948
2019-05-06T15:26:43.598Z,14892
2019-05-06T15:29:11.205Z,13252
2019-05-06T15:30:30.011Z,12352
2019-05-06T15:31:39.425Z,11864
2019-05-06T15:32:53.589Z,11968
2019-05-06T15:34:07.828Z,12356
2019-05-06T15:35:21.932Z,12584
2019-05-06T15:36:36.112Z,12668
2019-05-06T15:37:50.250Z,12500
2019-05-06T15:39:04.481Z,12056
2019-05-06T15:40:18.585Z,11156
2019-05-06T15:41:32.772Z,10280
2019-05-06T15:42:47.021Z,10084
2019-05-06T15:44:01.104Z,10544
2019-05-06T15:45:15.367Z,11312
2019-05-06T15:46:29.450Z,11980
2019-05-06T15:47:43.604Z,12480
2019-05-06T15:48:58.130Z,12864
2019-05-06T15:50:11.976Z,13000
2019-05-06T15:52:40.344Z,12472
2019-05-06T15:53:54.483Z,11892
2019-05-06T15:55:08.744Z,11380
2019-05-06T15:56:25.754Z,10808
2019-05-06T15:57:37.009Z,10272
2019-05-06T15:58:51.221Z,9796
2019-05-06T16:00:05.488Z,9384
2019-05-06T16:01:21.721Z,9128
2019-05-06T16:02:36.612Z,9112
2019-05-06T16:03:47.837Z,9332
2019-05-06T16:06:16.171Z,9616
2019-05-06T16:07:30.489Z,9816
2019-05-06T16:08:44.644Z,10032
2019-05-06T16:09:58.738Z,10008
2019-05-06T16:11:12.973Z,9864
2019-05-06T16:12:27.065Z,9668
2019-05-06T16:13:41.378Z,9292
2019-05-06T16:14:55.569Z,8764
2019-05-06T16:16:09.602Z,8232
2019-05-06T16:17:23.792Z,8124
2019-05-06T16:18:38.042Z,8572
2019-05-06T16:19:52.162Z,9400
2019-05-06T16:21:06.314Z,10212
2019-05-06T16:22:21.402Z,10752
2019-05-06T16:23:36.672Z,11096
2019-05-06T16:24:48.843Z,11284
2019-05-06T16:26:03.285Z,11180
2019-05-06T16:27:17.260Z,10612
2019-05-06T16:28:31.369Z,9784
2019-05-06T16:29:45.519Z,9104
2019-05-06T16:30:59.676Z,8580
2019-05-06T16:32:13.852Z,7744
2019-05-06T16:33:28.066Z,6684
2019-05-06T16:34:42.334Z,5768
2019-05-06T16:37:10.655Z,4888
2019-05-06T16:38:24.868Z,4868
2019-05-06T16:39:38.925Z,5000
2019-05-06T16:40:53.324Z,4896
2019-05-06T16:42:07.428Z,4600
2019-05-06T16:43:21.761Z,4352
2019-05-06T16:44:35.801Z,4076
2019-05-06T16:45:49.886Z,3700
2019-05-06T16:47:04.049Z,3424
2019-05-06T16:48:18.338Z,3036
2019-05-06T16:49:32.459Z,2568
2019-05-06T16:50:46.667Z,2336
2019-05-06T16:52:00.965Z,2196
2019-05-06T16:53:15.502Z,2060
2019-05-06T16:54:29.237Z,2056
2019-05-06T16:55:44.171Z,2252
2019-05-06T16:56:57.702Z,2500
2019-05-06T16:59:25.977Z,2904
2019-05-06T17:00:40.269Z,2860
2019-05-06T17:01:54.348Z,2644
2019-05-06T17:03:08.603Z,2440
2019-05-06T17:04:22.939Z,2264
2019-05-06T17:05:36.938Z,2112
2019-05-06T17:06:51.137Z,2104
2019-05-06T17:08:05.325Z,2168
2019-05-06T17:09:19.639Z,2104
2019-05-06T17:10:33.790Z,1836
2019-05-06T17:11:48.099Z,1460
2019-05-06T17:13:02.157Z,1164
2019-05-06T17:14:16.315Z,1032
2019-05-06T17:15:30.573Z,1056
2019-05-06T17:16:44.786Z,1152
2019-05-06T17:17:58.990Z,1392
2019-05-06T17:19:13.281Z,1816